Schedule Details


Flight Number: CTN345
Departure: Sarajevo (LQSA) at 16:15
Arrival: Franjo Tudman (LDZA) at 17:05
Route: BOSNA L608 KOMAR L187 TEBLI

Weather Information
LQSA 220330Z VRB01KT CAVOK 04/04 Q1019
LDZA 220330Z 23005KT CAVOK 05/03 Q1015 TEMPO 23008KT
Schedule Frequency

Route Map